Tiempo atmosférico en la estación meteorológica de Ledesma, Salamanca (790 m.)



Fecha
DESCASC
Temp. máxima en grados centígrados (hora)
DESCASC
Temp. mínima en grados centígrados (hora)
DESCASC
Temp. media en grados centígrados
DESCASC
Racha de viento máxima en m/sg (hora)
DESCASC
Velocidad máxima media en intervalos de 10 minutos(hora)
DESCASC
Precipitaciones diarias en mm
DESCASC
Precipitaciones de 00:00 a 06:00 en mm
DESCASC
Precipitaciones de 06:00 a 12:00 en mm
DESCASC
Precipitaciones de 12:00 a 18:00 en mm
DESCASC
Precipitaciones de 18:00 a 24:00 en mm
DESCASC
22-08-2019 30.2 (17:40) 13.6 (07:50) 21.9 11.94 (07:20) 8.61 (05:50) 0 0 0 0 0
21-08-2019 29.8 (19:00) 12.9 (07:40) 21.3 12.22 (08:00) 8.06 (08:40) 0 0 0 0 0
20-08-2019 26.2 (16:50) 12.6 (07:30) 19.4 11.67 (01:40) 8.61 (01:00) 0 0 0 0 0
19-08-2019 25.1 (17:00) 13.8 (07:10) 19.5 11.67 (08:00) 5.83 (08:30) 0 0 0 0 0
18-08-2019 26.7 (19:00) 14 (00:00) 20.4 8.61 (19:10) 5.28 (20:20) 0 0 0 0 0
17-08-2019 33 (18:00) 9.7 (00:00) 21.3 8.89 (17:40) 5 (18:50) 0 0 0 0 0
16-08-2019 32.8 (17:00) 14.3 (00:00) 23.5 8.33 (16:10) 4.72 (09:30) 0 0 0 0 0
15-08-2019 32.1 (18:40) 12.5 (00:00) 22.3 8.61 (12:20) 5 (11:40) 0 0 0 0 0
14-08-2019 30.7 (17:40) 8.3 (00:00) 19.5 7.78 (16:40) 4.44 (19:10) 0 0 0 0 0
13-08-2019 26.8 (18:10) 9.8 (00:00) 18.3 8.33 (05:40) 5.83 (03:20) 0 0 0 0 0
12-08-2019 22.9 (18:10) 4.9 (00:00) 13.9 9.72 (13:10) 6.11 (10:30) 0 0 0 0 0
11-08-2019 22.3 (16:20) 13 (00:00) 17.6 11.67 (17:20) 6.39 (17:30) 2 2 0 0 0
10-08-2019 25.9 (17:30) 13.4 (00:00) 19.6 8.33 (18:30) 4.17 (18:20) 0 0 0 0 0
09-08-2019 25.1 (17:20) 16.3 (00:00) 20.7 12.22 (16:00) 6.94 (15:10) 1.8 0 1.8 0 0
08-08-2019 28.9 (18:30) 19.2 (00:00) 24.1 15.83 (18:20) 8.61 (17:30) 0 0 0 0 0
07-08-2019 25.9 (15:30) 14.1 (00:00) 20 9.17 (15:40) 4.44 (15:40) 0 0 0 0 0
06-08-2019 30.6 (16:10) 14.2 (00:00) 22.4 8.06 (18:00) 4.72 (17:20) 0 0 0 0 0
05-08-2019 31.9 (17:30) 12.1 (00:00) 22 11.11 (13:20) 4.17 (18:00) 0 0 0 0 0
04-08-2019 31.6 (17:00) 12.9 (00:00) 22.3 9.17 (16:40) 5 (16:30) 0 0 0 0 0
03-08-2019 33 (17:40) 12.9 (00:00) 22.9 8.06 (17:20) 4.44 (17:20) 0 0 0 0 0
02-08-2019 32.5 (18:10) 13.5 (00:00) 23 7.5 (09:00) 5.28 (09:10) 0 0 0 0 0
01-08-2019 30.5 (17:00) 14.5 (00:00) 22.5 8.61 (17:30) 4.72 (06:30) 0 0 0 0 0
31-07-2019 27 (17:50) 10.8 (00:00) 18.9 11.39 (04:00) 8.33 (11:10) 0 0 0 0 0
30-07-2019 25.2 (18:20) 5.4 (00:00) 15.3 8.33 (15:20) 5.28 (10:50) 0 0 0 0 0
29-07-2019 24.4 (17:30) 11.1 (00:00) 17.8 10.28 (16:10) 5.83 (16:10) 0 0 0 0 0
28-07-2019 28 (18:20) 11.1 (00:00) 19.6 6.94 (17:30) 3.89 (18:00) 0 0 0 0 0
27-07-2019 24.2 (18:00) 11.7 (00:00) 18 10.83 (15:30) 5.83 (14:30) 0.8 0 0.8 0 0
26-07-2019 25 (17:10) 12.5 (00:00) 18.8 10.28 (14:40) 5.83 (20:10) 0 0 0 0 0
25-07-2019 31.3 (17:50) 13.4 (00:00) 22.3 11.67 (14:50) 6.67 (14:10) 0 0 0 0 0
24-07-2019 34 (17:20) 17.1 (00:00) 25.6 12.22 (14:10) 6.94 (15:00) 0 0 0 0 0

Gráficas

Temp. máximas Temp. mínimas Temp. medias Precipitaciones Rachas de viento máximas Velocidades máximas media en intervalos de 10 minutos

Datos horarios

Fecha y hora oficial Temperatura (ºC) Velocidad del viento (km/h) Dirección del viento Racha (km/h) Dirección de racha Precipitación (mm) Presión (hPa) Tendencia (hPa) Humedad (%)
2019-08-22 23:00:00 21.4 10 Nordeste 14 Este 0 -- -- 29
2019-08-22 22:00:00 22.8 10 Nordeste 13 Nordeste 0 -- -- 32
2019-08-22 21:00:00 26.4 11 Nordeste 23 Nordeste 0 -- -- 27
2019-08-22 20:00:00 28.8 14 Nordeste 23 Nordeste 0 -- -- 27
2019-08-22 19:00:00 29.5 10 Nordeste 25 Nordeste 0 -- -- 26
2019-08-22 18:00:00 29.8 8 Nordeste 25 Este 0 -- -- 26
2019-08-22 17:00:00 30 9 Nordeste 34 Este 0 -- -- 26
2019-08-22 16:00:00 29.8 13 Este 27 Nordeste 0 -- -- 26
2019-08-22 15:00:00 29.3 15 Este 27 Nordeste 0 -- -- 29
2019-08-22 14:00:00 27.7 15 Este 30 Nordeste 0 -- -- 37
2019-08-22 13:00:00 25.6 15 Nordeste 27 Nordeste 0 -- -- 45
2019-08-22 12:00:00 22.6 15 Este 26 Sudeste 0 -- -- 53
2019-08-22 11:00:00 19.8 11 Este 22 Nordeste 0 -- -- 60
2019-08-22 10:00:00 17.1 14 Este 38 Nordeste 0 -- -- 69
2019-08-22 09:00:00 14.5 29 Nordeste 41 Nordeste 0 -- -- 78
2019-08-22 08:00:00 13.6 27 Nordeste 43 Nordeste 0 -- -- 84
2019-08-22 07:00:00 14.1 27 Nordeste 43 Nordeste 0 -- -- 84
2019-08-22 06:00:00 14.6 31 Nordeste 42 Nordeste 0 -- -- 84
2019-08-22 05:00:00 15.4 26 Nordeste 36 Nordeste 0 -- -- 81
2019-08-22 04:00:00 16.7 23 Nordeste 30 Nordeste 0 -- -- 75
2019-08-22 03:00:00 17.9 15 Nordeste 22 Nordeste 0 -- -- 59
2019-08-22 02:00:00 19.6 8 Este 21 Nordeste 0 -- -- 52
2019-08-22 01:00:00 16.7 0 Calma 6 Este 0 -- -- 63
2019-08-22 00:00:00 17.4 6 Nordeste 7 Nordeste 0 -- -- 59
2019-08-21 23:00:00 19.2 4 Este 8 Nordeste 0 -- -- 52
2019-08-21 22:00:00 20.4 7 Nordeste 8 Nordeste 0 -- -- 48
2019-08-21 21:00:00 27.7 2 Oeste 9 Nordeste 0 -- -- 34
2019-08-21 20:00:00 28.5 7 Nordeste 15 Sur 0 -- -- 34
2019-08-21 19:00:00 29.8 7 Oeste 16 Sudoeste 0 -- -- 31
2019-08-21 18:00:00 29.3 5 Noroeste 22 Norte 0 -- -- 34
2019-08-21 17:00:00 29.1 9 Noroeste 23 Nordeste 0 -- -- 33
2019-08-21 16:00:00 27.9 9 Nordeste 21 Norte 0 -- -- 37
2019-08-21 15:00:00 26.1 9 Nordeste 20 Nordeste 0 -- -- 44
2019-08-21 14:00:00 23.6 12 Nordeste 21 Nordeste 0 -- -- 51
2019-08-21 13:00:00 21.3 13 Nordeste 26 Nordeste 0 -- -- 56
2019-08-21 12:00:00 18.8 17 Nordeste 28 Nordeste 0 -- -- 61
2019-08-21 11:00:00 16.3 19 Nordeste 32 Nordeste 0 -- -- 68
2019-08-21 10:00:00 15.4 26 Nordeste 38 Nordeste 0 -- -- 71
2019-08-21 09:00:00 14 27 Nordeste 38 Nordeste 0 -- -- 77
2019-08-21 08:00:00 12.9 25 Nordeste 44 Nordeste 0 -- -- 81
2019-08-21 07:00:00 13.1 26 Nordeste 41 Nordeste 0 -- -- 80
2019-08-21 06:00:00 13.3 24 Nordeste 36 Nordeste 0 -- -- 78
2019-08-21 05:00:00 13.9 26 Nordeste 38 Nordeste 0 -- -- 76
2019-08-21 04:00:00 14.2 24 Nordeste 37 Nordeste 0 -- -- 74
2019-08-21 03:00:00 14.7 25 Nordeste 35 Nordeste 0 -- -- 70
2019-08-21 02:00:00 15.5 17 Nordeste 28 Este 0 -- -- 63
2019-08-21 01:00:00 16.7 18 Este 33 Nordeste 0 -- -- 58
2019-08-21 00:00:00 17.7 24 Nordeste 41 Nordeste 0 -- -- 55
2019-08-20 23:00:00 18.8 23 Nordeste 36 Este 0 -- -- 51
2019-08-20 22:00:00 20.5 21 Nordeste 32 Nordeste 0 -- -- 46
2019-08-20 21:00:00 22.4 18 Nordeste 31 Nordeste 0 -- -- 39
2019-08-20 20:00:00 24.3 23 Nordeste 35 Nordeste 0 -- -- 36
2019-08-20 19:00:00 25.8 17 Este 33 Nordeste 0 -- -- 33
2019-08-20 18:00:00 26 19 Nordeste 35 Nordeste 0 -- -- 32
2019-08-20 17:00:00 26.2 17 Este 36 Nordeste 0 -- -- 32
2019-08-20 16:00:00 25.8 18 Este 38 Nordeste 0 -- -- 35
2019-08-20 15:00:00 24.7 20 Nordeste 37 Este 0 -- -- 39
2019-08-20 14:00:00 23.4 22 Este 37 Este 0 -- -- 43
2019-08-20 13:00:00 21.5 23 Este 38 Este 0 -- -- 53
2019-08-20 12:00:00 19.1 24 Este 35 Este 0 -- -- 60
2019-08-20 11:00:00 16.8 22 Este 39 Este 0 -- -- 68
2019-08-20 10:00:00 15.4 27 Este 41 Este 0 -- -- 73
2019-08-20 09:00:00 14 21 Este 37 Este 0 -- -- 79
2019-08-20 08:00:00 12.7 12 Este 22 Este 0 -- -- 84
2019-08-20 07:00:00 13 14 Este 31 Nordeste 0 -- -- 83
2019-08-20 06:00:00 13.1 14 Nordeste 28 Este 0 -- -- 82
2019-08-20 05:00:00 13.9 19 Este 36 Este 0 -- -- 79
2019-08-20 04:00:00 14.4 21 Este 37 Nordeste 0 -- -- 76
2019-08-20 03:00:00 14.9 22 Este 41 Nordeste 0 -- -- 74
2019-08-20 02:00:00 15.6 30 Nordeste 42 Nordeste 0 -- -- 73
2019-08-20 01:00:00 16.4 31 Nordeste 41 Nordeste 0 -- -- 69
2019-08-20 00:00:00 18.8 18 Nordeste 26 Nordeste 0 -- -- 61
2019-08-19 23:00:00 20.3 10 Nordeste 32 Este 0 -- -- 56
2019-08-19 22:00:00 22.4 5 Noroeste 10 Norte 0 -- -- 42
2019-08-19 21:00:00 23.4 3 Oeste 10 Noroeste 0 -- -- 38
2019-08-19 20:00:00 25 4 Sudeste 13 Oeste 0 -- -- 38
2019-08-19 19:00:00 24.2 6 Sudeste 14 Sudeste 0 -- -- 40
2019-08-19 18:00:00 24.3 4 Oeste 13 Sudeste 0 -- -- 40
2019-08-19 17:00:00 25.1 7 Sudoeste 13 Norte 0 -- -- 39
2019-08-19 16:00:00 23.4 4 Nordeste 19 Este 0 -- -- 47
2019-08-19 15:00:00 22.9 8 Este 19 Norte 0 -- -- 48
2019-08-19 14:00:00 21.8 11 Nordeste 22 Nordeste 0 -- -- 51
2019-08-19 13:00:00 20.2 14 Nordeste 23 Nordeste 0 -- -- 59
2019-08-19 12:00:00 18.1 16 Este 24 Nordeste 0 -- -- 66
2019-08-19 11:00:00 17.1 16 Nordeste 28 Este 0 -- -- 69
2019-08-19 10:00:00 15.3 17 Nordeste 24 Nordeste 0 -- -- 76
2019-08-19 09:00:00 14.2 10 Este 30 Nordeste 0 -- -- 80
2019-08-19 08:00:00 13.9 19 Nordeste 42 Nordeste 0 -- -- 82
2019-08-19 07:00:00 13.9 20 Nordeste 29 Nordeste 0 -- -- 83
2019-08-19 06:00:00 14 16 Nordeste 22 Nordeste 0 -- -- 81
2019-08-19 05:00:00 14.8 11 Nordeste 15 Nordeste 0 -- -- 73
2019-08-19 04:00:00 15.5 9 Nordeste 15 Nordeste 0 -- -- 70
2019-08-19 03:00:00 16.9 10 Nordeste 18 Este 0 -- -- 68
2019-08-19 02:00:00 17 4 Nordeste 6 Nordeste 0 -- -- 75
2019-08-19 01:00:00 18.1 4 Norte 12 Norte 0 -- -- 70
2019-08-19 00:00:00 19.7 6 Norte 24 Noroeste 0 -- -- 65
2019-08-18 23:00:00 20.6 5 Noroeste 14 Noroeste 0 -- -- 60
2019-08-18 22:00:00 22.1 4 Noroeste 25 Noroeste 0 -- -- 51
2019-08-18 21:00:00 24.1 13 Noroeste 30 Noroeste 0 -- -- 53
2019-08-18 20:00:00 26.1 12 Noroeste 31 Oeste 0 -- -- 48
2019-08-18 19:00:00 26.7 18 Oeste 31 Oeste 0 -- -- 48
2019-08-18 18:00:00 26.3 18 Oeste 29 Oeste 0 -- -- 49
2019-08-18 17:00:00 26.4 17 Oeste 31 Noroeste 0 -- -- 51
2019-08-18 16:00:00 26.3 12 Noroeste 28 Noroeste 0 -- -- 51
2019-08-18 15:00:00 26 14 Noroeste 29 Oeste 0 -- -- 52
2019-08-18 14:00:00 24.6 15 Oeste 24 Oeste 0 -- -- 55
2019-08-18 13:00:00 22 13 Oeste 21 Oeste 0 -- -- 62
2019-08-18 12:00:00 19.8 8 Oeste 19 Oeste 0 -- -- 70
2019-08-18 11:00:00 17.9 9 Oeste 20 Oeste 0 -- -- 78
2019-08-18 10:00:00 16.7 8 Oeste 14 Oeste 0 -- -- 83
2019-08-18 09:00:00 15.5 7 Sudoeste 15 Oeste 0 -- -- 88
2019-08-18 08:00:00 14.2 4 Sudoeste 12 Oeste 0 -- -- 88
2019-08-18 07:00:00 14.3 6 Oeste 11 Oeste 0 -- -- 85
2019-08-18 06:00:00 15.9 6 Oeste 25 Oeste 0 -- -- 77
2019-08-18 05:00:00 17.3 11 Oeste 20 Oeste 0 -- -- 69
2019-08-18 04:00:00 18.1 4 Oeste 15 Oeste 0 -- -- 70
2019-08-18 03:00:00 19.5 10 Oeste 15 Oeste 0 -- -- 62
2019-08-18 02:00:00 21.2 9 Oeste 17 Noroeste 0 -- -- 54
2019-08-18 01:00:00 22.3 7 Noroeste 13 Oeste 0 -- -- 50
2019-08-18 00:00:00 23.6 6 Noroeste 15 Noroeste 0 -- -- 46
2019-08-17 23:00:00 24.9 7 Noroeste 19 Noroeste 0 -- -- 41
2019-08-17 22:00:00 26.1 3 Noroeste 13 Noroeste 0 -- -- 33
2019-08-17 21:00:00 30.1 6 Noroeste 28 Noroeste 0 -- -- 27
2019-08-17 20:00:00 31.8 13 Oeste 30 Noroeste 0 -- -- 23
2019-08-17 19:00:00 32.4 14 Oeste 29 Oeste 0 -- -- 21
2019-08-17 18:00:00 33 15 Oeste 32 Oeste 0 -- -- 22
2019-08-17 17:00:00 32.8 15 Oeste 32 Oeste 0 -- -- 24
2019-08-17 16:00:00 32.2 13 Noroeste 28 Oeste 0 -- -- 25
2019-08-17 15:00:00 31.1 12 Oeste 23 Oeste 0 -- -- 28
2019-08-17 14:00:00 29.6 6 Noroeste 17 Oeste 0 -- -- 31
2019-08-17 13:00:00 27.7 8 Oeste 17 Oeste 0 -- -- 38
2019-08-17 12:00:00 25.6 6 Oeste 17 Oeste 0 -- -- 45
2019-08-17 11:00:00 22.2 8 Noroeste 15 Noroeste 0 -- -- 54
2019-08-17 10:00:00 19.1 7 Oeste 18 Noroeste 0 -- -- 66
2019-08-17 09:00:00 15.6 0 Calma 4 Sudoeste 0 -- -- 77
2019-08-17 08:00:00 9.9 2 Este 4 Nordeste 0 -- -- 92
2019-08-17 07:00:00 10.9 0 Calma 4 Sur 0 -- -- 84
2019-08-17 06:00:00 11.5 2 Este 5 Sudeste 0 -- -- 85
2019-08-17 05:00:00 11.8 0 Calma 5 Nordeste 0 -- -- 85
2019-08-17 04:00:00 13.1 0 Calma 2 Sudoeste 0 -- -- 79
2019-08-17 03:00:00 14.8 2 Este 3 Nordeste 0 -- -- 73
2019-08-17 02:00:00 17.6 0 Calma 8 Noroeste 0 -- -- 64
2019-08-17 01:00:00 22.1 7 Noroeste 15 Noroeste 0 -- -- 53
2019-08-17 00:00:00 23.5 6 Noroeste 17 Noroeste 0 -- -- 49
2019-08-16 23:00:00 25 5 Noroeste 16 Noroeste 0 -- -- 44
2019-08-16 22:00:00 27.2 8 Noroeste 25 Noroeste 0 -- -- 38
2019-08-16 21:00:00 29.7 9 Noroeste 22 Noroeste 0 -- -- 30
2019-08-16 20:00:00 31.4 13 Noroeste 28 Noroeste 0 -- -- 23
2019-08-16 19:00:00 32.3 13 Noroeste 27 Noroeste 0 -- -- 22
2019-08-16 18:00:00 32.7 14 Noroeste 28 Noroeste 0 -- -- 19
2019-08-16 17:00:00 32.8 10 Noroeste 30 Oeste 0 -- -- 21
2019-08-16 16:00:00 31.7 9 Noroeste 24 Oeste 0 -- -- 25
2019-08-16 15:00:00 30.4 11 Oeste 24 Oeste 0 -- -- 30
2019-08-16 14:00:00 28.6 6 Oeste 20 Oeste 0 -- -- 37
2019-08-16 13:00:00 27.1 12 Sudoeste 22 Sudoeste 0 -- -- 43
2019-08-16 12:00:00 25.6 7 Norte 18 Noroeste 0 -- -- 46
2019-08-16 11:00:00 23.1 5 Nordeste 15 Nordeste 0 -- -- 52
2019-08-16 10:00:00 19.6 14 Nordeste 24 Nordeste 0 -- -- 62
2019-08-16 09:00:00 17.6 14 Nordeste 21 Nordeste 0 -- -- 69
2019-08-16 08:00:00 15.2 4 Nordeste 12 Nordeste 0 -- -- 75
2019-08-16 07:00:00 14.3 4 Nordeste 10 Nordeste 0 -- -- 78
2019-08-16 06:00:00 15.7 3 Norte 6 Norte 0 -- -- 72
2019-08-16 05:00:00 17.5 3 Nordeste 17 Nordeste 0 -- -- 70
2019-08-16 04:00:00 18.4 13 Nordeste 23 Nordeste 0 -- -- 67
2019-08-16 03:00:00 20.1 12 Nordeste 17 Nordeste 0 -- -- 61
2019-08-16 02:00:00 21.2 8 Norte 17 Nordeste 0 -- -- 60
2019-08-16 01:00:00 21.8 6 Norte 11 Norte 0 -- -- 58
2019-08-16 00:00:00 23 7 Norte 11 Noroeste 0 -- -- 54
2019-08-15 23:00:00 24.8 7 Norte 14 Noroeste 0 -- -- 46
2019-08-15 22:00:00 26.7 8 Noroeste 21 Noroeste 0 -- -- 41
2019-08-15 21:00:00 29.4 9 Noroeste 21 Noroeste 0 -- -- 34
2019-08-15 20:00:00 31.1 11 Noroeste 23 Oeste 0 -- -- 31
2019-08-15 19:00:00 31.8 12 Noroeste 22 Noroeste 0 -- -- 29
2019-08-15 18:00:00 31.9 12 Oeste 23 Oeste 0 -- -- 26
2019-08-15 17:00:00 31.5 12 Noroeste 27 Oeste 0 -- -- 26
2019-08-15 16:00:00 31.2 9 Noroeste 20 Nordeste 0 -- -- 27
2019-08-15 15:00:00 29.8 5 Sudeste 17 Nordeste 0 -- -- 32
2019-08-15 14:00:00 27.8 8 Este 24 Nordeste 0 -- -- 36
2019-08-15 13:00:00 26.6 13 Nordeste 31 Este 0 -- -- 39
2019-08-15 12:00:00 25.2 16 Nordeste 25 Nordeste 0 -- -- 40
2019-08-15 11:00:00 22.9 14 Este 23 Este 0 -- -- 52
2019-08-15 10:00:00 20.5 13 Este 19 Este 0 -- -- 65
2019-08-15 09:00:00 17.2 0 Calma 5 Este 0 -- -- 79
2019-08-15 08:00:00 12.9 0 Calma 4 Este 0 -- -- 89
2019-08-15 07:00:00 12.6 3 Nordeste 6 Nordeste 0 -- -- 90
2019-08-15 06:00:00 13.9 0 Calma 6 Nordeste 0 -- -- 88
2019-08-15 05:00:00 14.8 4 Nordeste 6 Nordeste 0 -- -- 87
2019-08-15 04:00:00 15.9 3 Este 7 Nordeste 0 -- -- 84
2019-08-15 03:00:00 19 4 Noroeste 10 Noroeste 0 -- -- 73
2019-08-15 02:00:00 19.3 2 Sur 8 Noroeste 0 -- -- 74
2019-08-15 01:00:00 21.8 6 Noroeste 13 Noroeste 0 -- -- 68
2019-08-15 00:00:00 23.1 6 Noroeste 16 Noroeste 0 -- -- 63
2019-08-14 23:00:00 24.2 6 Noroeste 15 Noroeste 0 -- -- 57
2019-08-14 22:00:00 25.7 9 Noroeste 22 Noroeste 0 -- -- 50
2019-08-14 21:00:00 27.8 13 Noroeste 27 Oeste 0 -- -- 43
2019-08-14 20:00:00 29.4 14 Noroeste 27 Noroeste 0 -- -- 39
2019-08-14 19:00:00 30.2 14 Noroeste 27 Noroeste 0 -- -- 35
2019-08-14 18:00:00 30.7 12 Noroeste 27 Oeste 0 -- -- 33
2019-08-14 17:00:00 30.3 12 Noroeste 28 Noroeste 0 -- -- 31
2019-08-14 16:00:00 29.4 12 Oeste 27 Oeste 0 -- -- 31
2019-08-14 15:00:00 28.8 12 Noroeste 23 Noroeste 0 -- -- 31
2019-08-14 14:00:00 27.9 9 Noroeste 21 Oeste 0 -- -- 33
2019-08-14 13:00:00 26.5 9 Noroeste 18 Noroeste 0 -- -- 32
2019-08-14 12:00:00 24.6 8 Noroeste 15 Oeste 0 -- -- 36
2019-08-14 11:00:00 22.2 7 Noroeste 14 Noroeste 0 -- -- 39
2019-08-14 10:00:00 19.3 2 Oeste 6 Oeste 0 -- -- 45
2019-08-14 09:00:00 15.3 3 Nordeste 6 Nordeste 0 -- -- 57
2019-08-14 08:00:00 9.2 2 Norte 4 Nordeste 0 -- -- 72
2019-08-14 07:00:00 9.2 0 Calma 4 Este 0 -- -- 70
2019-08-14 06:00:00 9 0 Calma 8 Nordeste 0 -- -- 68
2019-08-14 05:00:00 9.6 0 Calma 7 Nordeste 0 -- -- 64
2019-08-14 04:00:00 10 0 Calma 5 Nordeste 0 -- -- 64
2019-08-14 03:00:00 10.5 0 Calma 4 Nordeste 0 -- -- 60
2019-08-14 02:00:00 11.6 2 Nordeste 5 Nordeste 0 -- -- 59
2019-08-14 01:00:00 13 2 Nordeste 5 Nordeste 0 -- -- 54
2019-08-14 00:00:00 14 2 Nordeste 6 Norte 0 -- -- 47
2019-08-13 23:00:00 17.8 4 Norte 7 Norte 0 -- -- 36
2019-08-13 22:00:00 19.6 5 Norte 8 Noroeste 0 -- -- 34
2019-08-13 21:00:00 25.3 5 Noroeste 13 Oeste 0 -- -- 25
2019-08-13 20:00:00 26.4 7 Oeste 18 Noroeste 0 -- -- 24
2019-08-13 19:00:00 26.6 6 Noroeste 28 Este 0 -- -- 24
2019-08-13 18:00:00 26.7 12 Oeste 25 Noroeste 0 -- -- 22
2019-08-13 17:00:00 26.2 5 Noroeste 20 Norte 0 -- -- 25
2019-08-13 16:00:00 25.5 8 Nordeste 23 Este 0 -- -- 26
2019-08-13 15:00:00 24.5 8 Norte 19 Nordeste 0 -- -- 30
2019-08-13 14:00:00 23.2 7 Nordeste 20 Sudeste 0 -- -- 31
2019-08-13 13:00:00 21.7 11 Este 30 Este 0 -- -- 37
2019-08-13 12:00:00 19.8 13 Este 26 Nordeste 0 -- -- 43
2019-08-13 11:00:00 17 16 Nordeste 27 Nordeste 0 -- -- 51
2019-08-13 10:00:00 14.4 14 Este 29 Nordeste 0 -- -- 62
2019-08-13 09:00:00 11.6 18 Este 30 Este 0 -- -- 73
2019-08-13 08:00:00 9.8 12 Este 23 Nordeste 0 -- -- 80
2019-08-13 07:00:00 10.4 8 Este 26 Nordeste 0 -- -- 78
2019-08-13 06:00:00 10.6 18 Nordeste 30 Nordeste 0 -- -- 77
2019-08-13 05:00:00 11.2 16 Nordeste 24 Este 0 -- -- 74
2019-08-13 04:00:00 12 16 Este 29 Nordeste 0 -- -- 71
2019-08-13 03:00:00 12.1 19 Nordeste 26 Nordeste 0 -- -- 70
2019-08-13 02:00:00 13.1 17 Nordeste 24 Nordeste 0 -- -- 57
2019-08-13 01:00:00 14 16 Nordeste 27 Nordeste 0 -- -- 50
2019-08-13 00:00:00 15 12 Nordeste 16 Nordeste 0 -- -- 45
2019-08-12 23:00:00 16.8 11 Nordeste 15 Nordeste 0 -- -- 40
2019-08-12 22:00:00 17.8 8 Nordeste 19 Nordeste 0 -- -- 36
2019-08-12 21:00:00 20.9 14 Nordeste 22 Nordeste 0 -- -- 30
2019-08-12 20:00:00 21.2 14 Nordeste 25 Nordeste 0 -- -- 29
2019-08-12 19:00:00 22 15 Nordeste 27 Nordeste 0 -- -- 27
2019-08-12 18:00:00 22.6 12 Este 27 Nordeste 0 -- -- 28
2019-08-12 17:00:00 22.4 14 Nordeste 32 Norte 0 -- -- 28
2019-08-12 16:00:00 21.8 17 Nordeste 31 Nordeste 0 -- -- 30
2019-08-12 15:00:00 20.9 18 Nordeste 32 Nordeste 0 -- -- 32
2019-08-12 14:00:00 19.7 17 Nordeste 35 Este 0 -- -- 39
2019-08-12 13:00:00 18.2 18 Nordeste 32 Nordeste 0 -- -- 46
2019-08-12 12:00:00 17 20 Nordeste 33 Nordeste 0 -- -- 50
2019-08-12 11:00:00 15.6 21 Nordeste 32 Nordeste 0 -- -- 54
2019-08-12 10:00:00 13.6 18 Nordeste 29 Nordeste 0 -- -- 64
2019-08-12 09:00:00 10 0 Calma 5 Nordeste 0 -- -- 85
2019-08-12 08:00:00 5.7 2 Nordeste 3 Nordeste 0 -- -- 95
2019-08-12 07:00:00 4.9 3 Nordeste 4 Nordeste 0 -- -- 94
2019-08-12 06:00:00 5.7 3 Nordeste 4 Nordeste 0 -- -- 93
2019-08-12 05:00:00 6.5 3 Nordeste 5 Nordeste 0 -- -- 88
2019-08-12 04:00:00 8.9 0 Calma 10 Norte 0 -- -- 78
2019-08-12 03:00:00 11.3 6 Norte 19 Norte 0 -- -- 72
2019-08-12 02:00:00 11.9 9 Norte 14 Norte 0 -- -- 70
2019-08-12 01:00:00 13 7 Norte 19 Noroeste 0 -- -- 65
2019-08-12 00:00:00 14.2 8 Noroeste 19 Noroeste 0 -- -- 60
2019-08-11 23:00:00 15.5 10 Norte 27 Noroeste 0 -- -- 56
2019-08-11 22:00:00 17.3 10 Noroeste 24 Norte 0 -- -- 51
2019-08-11 21:00:00 19.4 10 Noroeste 29 Noroeste 0 -- -- 41
2019-08-11 20:00:00 21.3 18 Noroeste 34 Oeste 0 -- -- 34
2019-08-11 19:00:00 21.8 15 Noroeste 35 Oeste 0 -- -- 34
2019-08-11 18:00:00 22.2 18 Noroeste 42 Oeste 0 -- -- 33
2019-08-11 17:00:00 22 20 Noroeste 39 Noroeste 0 -- -- 31
2019-08-11 16:00:00 22 17 Noroeste 36 Noroeste 0 -- -- 36
2019-08-11 15:00:00 20.1 13 Oeste 32 Noroeste 0 -- -- 42
2019-08-11 14:00:00 19.2 8 Noroeste 32 Oeste 0 -- -- 50
2019-08-11 13:00:00 18.6 12 Oeste 29 Oeste 0 -- -- 63
2019-08-11 12:00:00 16.8 14 Oeste 24 Oeste 0 -- -- 67
2019-08-11 11:00:00 15.1 8 Noroeste 21 Noroeste 0 -- -- 79
2019-08-11 10:00:00 14.3 13 Oeste 23 Oeste 0 -- -- 86
2019-08-11 09:00:00 13.5 11 Oeste 19 Oeste 0 -- -- 87
2019-08-11 08:00:00 13.5 10 Oeste 17 Oeste 0 -- -- 89
2019-08-11 07:00:00 13.4 4 Oeste 9 Oeste 0 -- -- 92
2019-08-11 06:00:00 13.2 4 Oeste 12 Nordeste 0 -- -- 90
2019-08-11 05:00:00 13.6 10 Nordeste 20 Este 0.4 -- -- 87
2019-08-11 04:00:00 14.4 15 Este 21 Este 1.2 -- -- 88
2019-08-11 03:00:00 16.6 6 Noroeste 18 Noroeste 0.4 -- -- 76
2019-08-11 02:00:00 18 8 Noroeste 22 Noroeste 0 -- -- 60
2019-08-11 01:00:00 18.8 8 Noroeste 17 Noroeste 0 -- -- 56
2019-08-11 00:00:00 19.4 6 Noroeste 15 Norte 0 -- -- 51
2019-08-10 23:00:00 19.7 5 Norte 23 Norte 0 -- -- 48
2019-08-10 22:00:00 21.3 13 Norte 27 Norte 0 -- -- 44
2019-08-10 21:00:00 22.8 8 Noroeste 24 Noroeste 0 -- -- 37
2019-08-10 20:00:00 24 13 Noroeste 28 Noroeste 0 -- -- 36
2019-08-10 19:00:00 25 12 Noroeste 30 Noroeste 0 -- -- 33
2019-08-10 18:00:00 25.5 13 Noroeste 28 Noroeste 0 -- -- 32
2019-08-10 17:00:00 25.6 13 Oeste 24 Oeste 0 -- -- 34
2019-08-10 16:00:00 24.3 4 Nordeste 23 Oeste 0 -- -- 39
2019-08-10 15:00:00 23.7 12 Oeste 22 Noroeste 0 -- -- 39
2019-08-10 14:00:00 22.5 4 Oeste 15 Noroeste 0 -- -- 40
2019-08-10 13:00:00 20.9 8 Oeste 17 Noroeste 0 -- -- 45
2019-08-10 12:00:00 19.7 6 Este 16 Oeste 0 -- -- 52
2019-08-10 11:00:00 18.3 4 Norte 15 Oeste 0 -- -- 57
2019-08-10 10:00:00 16.8 5 Norte 13 Noroeste 0 -- -- 69
2019-08-10 09:00:00 14.7 3 Sudoeste 5 Sudoeste 0 -- -- 83
2019-08-10 08:00:00 13.9 2 Sudeste 4 Sudeste 0 -- -- 83
2019-08-10 07:00:00 13.6 2 Oeste 7 Sudeste 0 -- -- 84
2019-08-10 06:00:00 13.4 4 Sudeste 6 Sudeste 0 -- -- 84
2019-08-10 05:00:00 13.4 2 Sur 9 Sudoeste 0 -- -- 83
2019-08-10 04:00:00 13.4 2 Sudoeste 6 Noroeste 0 -- -- 82
2019-08-10 03:00:00 14.3 4 Oeste 16 Oeste 0 -- -- 79
2019-08-10 02:00:00 14.3 4 Noroeste 9 Noroeste 0 -- -- 80
2019-08-10 01:00:00 15.2 4 Noroeste 10 Noroeste 0 -- -- 74
2019-08-10 00:00:00 16.3 4 Noroeste 15 Norte 0 -- -- 70
2019-08-09 23:00:00 17.6 8 Noroeste 20 Noroeste 0 -- -- 64
2019-08-09 22:00:00 19.6 7 Noroeste 21 Noroeste 0 -- -- 55
2019-08-09 21:00:00 22 16 Oeste 29 Oeste 0 -- -- 48
2019-08-09 20:00:00 23.8 15 Oeste 32 Oeste 0 -- -- 41
2019-08-09 19:00:00 24.1 19 Oeste 33 Oeste 0 -- -- 43
2019-08-09 18:00:00 25 20 Oeste 42 Sudoeste 0 -- -- 41
2019-08-09 17:00:00 24.4 23 Sudoeste 41 Oeste 0 -- -- 41
2019-08-09 16:00:00 24.7 25 Oeste 44 Sudoeste 0 -- -- 38
2019-08-09 15:00:00 23.6 23 Oeste 40 Oeste 0 -- -- 47
2019-08-09 14:00:00 21.4 22 Oeste 39 Oeste 0 -- -- 60
2019-08-09 13:00:00 19.8 18 Oeste 31 Oeste 0 -- -- 72
2019-08-09 12:00:00 17.8 16 Oeste 29 Oeste 0 -- -- 88
2019-08-09 11:00:00 16.4 17 Oeste 30 Noroeste 0.6 -- -- 94
2019-08-09 10:00:00 16.8 16 Oeste 28 Oeste 0.4 -- -- 95
2019-08-09 09:00:00 17.3 17 Oeste 35 Oeste 0.8 -- -- 95
2019-08-09 08:00:00 19.1 21 Sudoeste 41 Sudoeste 0 -- -- 93
2019-08-09 07:00:00 20.1 20 Sudoeste 31 Sudoeste 0 -- -- 83
2019-08-09 06:00:00 19.7 21 Sudoeste 35 Sudoeste 0 -- -- 83
2019-08-09 05:00:00 19.5 15 Sudoeste 28 Sudoeste 0 -- -- 81
2019-08-09 04:00:00 19.9 17 Sudoeste 30 Sudoeste 0 -- -- 77
2019-08-09 03:00:00 20.2 13 Sudoeste 23 Sudoeste 0 -- -- 76
2019-08-09 02:00:00 20.8 8 Sudoeste 22 Sudoeste 0 -- -- 71
2019-08-09 01:00:00 21.8 13 Sudoeste 31 Oeste 0 -- -- 67
2019-08-09 00:00:00 22.7 15 Sudoeste 30 Sudoeste 0 -- -- 63
2019-08-08 23:00:00 22.9 10 Sudoeste 25 Sudoeste 0 -- -- 59
2019-08-08 22:00:00 24.2 17 Sudoeste 37 Sudoeste 0 -- -- 55
2019-08-08 21:00:00 25.5 21 Sudoeste 42 Oeste 0 -- -- 51
2019-08-08 20:00:00 27.5 25 Sudoeste 41 Oeste 0 -- -- 45
2019-08-08 19:00:00 28.3 24 Sudoeste 57 Sudoeste 0 -- -- 44
2019-08-08 18:00:00 28.6 26 Sudoeste 48 Oeste 0 -- -- 44
2019-08-08 17:00:00 28.5 29 Sudoeste 46 Sudoeste 0 -- -- 44
2019-08-08 16:00:00 28.5 24 Sudoeste 45 Sudoeste 0 -- -- 47
2019-08-08 15:00:00 27.4 22 Sudoeste 40 Sudoeste 0 -- -- 51
2019-08-08 14:00:00 25.8 19 Sudoeste 34 Sudoeste 0 -- -- 58
2019-08-08 13:00:00 25.8 23 Sudoeste 37 Sudoeste 0 -- -- 57
2019-08-08 12:00:00 24.9 18 Sudoeste 33 Sudoeste 0 -- -- 62
2019-08-08 11:00:00 23.6 15 Sudoeste 26 Oeste 0 -- -- 67
2019-08-08 10:00:00 21.2 15 Sudoeste 25 Sudoeste 0 -- -- 73
2019-08-08 09:00:00 19.9 11 Sudoeste 30 Sudoeste 0 -- -- 77
2019-08-08 08:00:00 19.7 10 Sudoeste 22 Oeste 0 -- -- 72
2019-08-08 07:00:00 19.6 9 Sudoeste 24 Sudoeste 0 -- -- 73
2019-08-08 06:00:00 19.7 7 Sudoeste 25 Sudoeste 0 -- -- 71
2019-08-08 05:00:00 19.6 15 Sudoeste 33 Sudoeste 0 -- -- 71
2019-08-08 04:00:00 19.4 5 Sur 9 Sudoeste 0 -- -- 71
2019-08-08 03:00:00 19.5 7 Sudoeste 32 Sudoeste 0 -- -- 70
2019-08-08 02:00:00 20.7 12 Oeste 21 Sudoeste 0 -- -- 62
2019-08-08 01:00:00 21.2 8 Oeste 20 Oeste 0 -- -- 62
2019-08-08 00:00:00 21.6 10 Oeste 19 Oeste 0 -- -- 61
2019-08-07 23:00:00 21.8 4 Oeste 16 Oeste 0 -- -- 63
2019-08-07 22:00:00 22.8 5 Noroeste 22 Oeste 0 -- -- 58
2019-08-07 21:00:00 23.6 11 Oeste 26 Oeste 0 -- -- 50
2019-08-07 20:00:00 24.7 5 Sudoeste 15 Oeste 0 -- -- 50
2019-08-07 19:00:00 23.6 4 Noroeste 19 Noroeste 0 -- -- 54
2019-08-07 18:00:00 23.7 9 Noroeste 22 Noroeste 0 -- -- 54
2019-08-07 17:00:00 24.7 12 Noroeste 28 Sudoeste 0 -- -- 51
2019-08-07 16:00:00 25.4 14 Oeste 33 Oeste 0 -- -- 43
2019-08-07 15:00:00 25.3 16 Oeste 26 Oeste 0 -- -- 45
2019-08-07 14:00:00 24.6 13 Sudoeste 22 Oeste 0 -- -- 46
2019-08-07 13:00:00 23.3 13 Sudoeste 23 Sudoeste 0 -- -- 56
2019-08-07 12:00:00 22.1 9 Oeste 16 Sudoeste 0 -- -- 66
2019-08-07 11:00:00 20.2 6 Oeste 14 Sudoeste 0 -- -- 74
2019-08-07 10:00:00 18.8 6 Oeste 13 Oeste 0 -- -- 80
2019-08-07 09:00:00 17.3 7 Sudoeste 11 Sudoeste 0 -- -- 85
2019-08-07 08:00:00 15.1 3 Sudoeste 6 Oeste 0 -- -- 91
2019-08-07 07:00:00 15.1 0 Calma 4 Este 0 -- -- 84
2019-08-07 06:00:00 18 3 Oeste 19 Oeste 0 -- -- 78
2019-08-07 05:00:00 18.8 7 Oeste 18 Noroeste 0 -- -- 75
2019-08-07 04:00:00 19.7 7 Oeste 21 Oeste 0 -- -- 72
2019-08-07 03:00:00 20.3 5 Oeste 15 Oeste 0 -- -- 68
2019-08-07 02:00:00 20.9 8 Oeste 15 Sudoeste 0 -- -- 67
2019-08-07 01:00:00 21.6 8 Oeste 13 Oeste 0 -- -- 64
2019-08-07 00:00:00 22.3 9 Oeste 17 Oeste 0 -- -- 61
2019-08-06 23:00:00 22.7 6 Norte 22 Oeste 0 -- -- 60
2019-08-06 22:00:00 23.6 9 Noroeste 21 Oeste 0 -- -- 58
2019-08-06 21:00:00 24.5 10 Norte 29 Norte 0 -- -- 53
2019-08-06 20:00:00 26.9 13 Noroeste 27 Noroeste 0 -- -- 44
2019-08-06 19:00:00 28.5 13 Noroeste 29 Noroeste 0 -- -- 36
2019-08-06 18:00:00 29.8 12 Noroeste 29 Oeste 0 -- -- 33
2019-08-06 17:00:00 30.4 14 Noroeste 28 Noroeste 0 -- -- 30
2019-08-06 16:00:00 30.3 14 Oeste 28 Oeste 0 -- -- 33
2019-08-06 15:00:00 29.7 11 Noroeste 28 Oeste 0 -- -- 36
2019-08-06 14:00:00 29.2 9 Oeste 16 Oeste 0 -- -- 40
2019-08-06 13:00:00 27 8 Noroeste 17 Oeste 0 -- -- 44
2019-08-06 12:00:00 24.9 9 Noroeste 17 Oeste 0 -- -- 55
2019-08-06 11:00:00 22.9 5 Noroeste 10 Noroeste 0 -- -- 63
2019-08-06 10:00:00 19.2 5 Oeste 9 Oeste 0 -- -- 74
2019-08-06 09:00:00 17.4 2 Sudoeste 4 Sudoeste 0 -- -- 78
2019-08-06 08:00:00 14.7 2 Oeste 5 Sudeste 0 -- -- 81
2019-08-06 07:00:00 14.7 2 Sur 7 Sudeste 0 -- -- 82
2019-08-06 06:00:00 15.4 0 Calma 6 Oeste 0 -- -- 79
2019-08-06 05:00:00 14.9 3 Oeste 4 Oeste 0 -- -- 78
2019-08-06 04:00:00 17.5 0 Calma 13 Oeste 0 -- -- 69
2019-08-06 03:00:00 19.7 7 Oeste 14 Oeste 0 -- -- 63
2019-08-06 02:00:00 21 8 Oeste 15 Oeste 0 -- -- 59
2019-08-06 01:00:00 22.4 6 Oeste 9 Noroeste 0 -- -- 56
2019-08-06 00:00:00 24 4 Noroeste 13 Oeste 0 -- -- 49
2019-08-05 23:00:00 25 3 Noroeste 13 Noroeste 0 -- -- 45
2019-08-05 22:00:00 26.2 2 Norte 17 Oeste 0 -- -- 34
2019-08-05 21:00:00 29.2 10 Noroeste 26 Oeste 0 -- -- 30
2019-08-05 20:00:00 30.6 14 Noroeste 30 Noroeste 0 -- -- 27
2019-08-05 19:00:00 31.4 13 Noroeste 31 Oeste 0 -- -- 27
2019-08-05 18:00:00 31.7 15 Noroeste 32 Noroeste 0 -- -- 29
2019-08-05 17:00:00 31.6 12 Noroeste 30 Oeste 0 -- -- 29
2019-08-05 16:00:00 31 10 Noroeste 24 Oeste 0 -- -- 32
2019-08-05 15:00:00 30 12 Oeste 23 Oeste 0 -- -- 35
2019-08-05 14:00:00 29.2 9 Sudoeste 40 Oeste 0 -- -- 37
2019-08-05 13:00:00 27.8 7 Nordeste 19 Norte 0 -- -- 42
2019-08-05 12:00:00 26.4 6 Norte 13 Norte 0 -- -- 47
2019-08-05 11:00:00 23.8 6 Norte 14 Norte 0 -- -- 58
2019-08-05 10:00:00 20.6 6 Norte 10 Nordeste 0 -- -- 68
2019-08-05 09:00:00 17.6 4 Norte 7 Norte 0 -- -- 82
2019-08-05 08:00:00 12.8 3 Nordeste 5 Nordeste 0 -- -- 93
2019-08-05 07:00:00 12.2 0 Calma 3 Nordeste 0 -- -- 90
2019-08-05 06:00:00 12.9 0 Calma 4 Oeste 0 -- -- 87
2019-08-05 05:00:00 14.3 0 Calma 5 Oeste 0 -- -- 80
2019-08-05 04:00:00 17.3 3 Oeste 8 Oeste 0 -- -- 73
2019-08-05 03:00:00 18.8 3 Sudoeste 9 Oeste 0 -- -- 70
2019-08-05 02:00:00 20.4 4 Oeste 15 Noroeste 0 -- -- 61
2019-08-05 01:00:00 21.9 7 Noroeste 14 Noroeste 0 -- -- 55
2019-08-05 00:00:00 23.5 9 Noroeste 17 Noroeste 0 -- -- 49
2019-08-04 23:00:00 24.9 6 Noroeste 19 Noroeste 0 -- -- 44
2019-08-04 22:00:00 26.6 5 Noroeste 18 Noroeste 0 -- -- 35
2019-08-04 21:00:00 29.3 9 Noroeste 25 Noroeste 0 -- -- 31
2019-08-04 20:00:00 30.5 13 Noroeste 31 Noroeste 0 -- -- 29
2019-08-04 19:00:00 31.3 11 Noroeste 33 Oeste 0 -- -- 27
2019-08-04 18:00:00 31.5 18 Noroeste 32 Noroeste 0 -- -- 24
2019-08-04 17:00:00 31.6 16 Oeste 33 Oeste 0 -- -- 30
2019-08-04 16:00:00 31.2 18 Oeste 30 Oeste 0 -- -- 32
2019-08-04 15:00:00 30.2 12 Oeste 28 Oeste 0 -- -- 34
2019-08-04 14:00:00 29.1 11 Oeste 21 Oeste 0 -- -- 40
2019-08-04 13:00:00 27.2 7 Noroeste 18 Noroeste 0 -- -- 49
2019-08-04 12:00:00 24.7 10 Oeste 18 Oeste 0 -- -- 54
2019-08-04 11:00:00 22.7 6 Oeste 15 Noroeste 0 -- -- 64
2019-08-04 10:00:00 20.4 6 Noroeste 14 Noroeste 0 -- -- 72
2019-08-04 09:00:00 17.8 5 Oeste 9 Oeste 0 -- -- 79
2019-08-04 08:00:00 13.8 0 Calma 2 Sudeste 0 -- -- 88
2019-08-04 07:00:00 13.7 0 Calma 3 Sudoeste 0 -- -- 83
2019-08-04 06:00:00 14.6 2 Sur 5 Oeste 0 -- -- 84
2019-08-04 05:00:00 17 3 Oeste 12 Oeste 0 -- -- 74
2019-08-04 04:00:00 18.9 6 Oeste 13 Oeste 0 -- -- 71
2019-08-04 03:00:00 19.8 8 Oeste 13 Oeste 0 -- -- 66
2019-08-04 02:00:00 21 5 Oeste 13 Oeste 0 -- -- 59
2019-08-04 01:00:00 22.8 7 Noroeste 13 Noroeste 0 -- -- 55
2019-08-04 00:00:00 24.2 6 Noroeste 11 Noroeste 0 -- -- 49
2019-08-03 23:00:00 25.6 6 Noroeste 20 Noroeste 0 -- -- 41
2019-08-03 22:00:00 27.6 9 Noroeste 29 Noroeste 0 -- -- 36
2019-08-03 21:00:00 30.5 9 Noroeste 22 Noroeste 0 -- -- 29
2019-08-03 20:00:00 31.7 11 Noroeste 28 Noroeste 0 -- -- 27
2019-08-03 19:00:00 32.6 10 Noroeste 25 Oeste 0 -- -- 27
2019-08-03 18:00:00 32.7 10 Noroeste 29 Oeste 0 -- -- 27
2019-08-03 17:00:00 32.7 13 Oeste 26 Oeste 0 -- -- 28
2019-08-03 16:00:00 32.2 9 Noroeste 23 Oeste 0 -- -- 25
2019-08-03 15:00:00 31.7 10 Noroeste 22 Oeste 0 -- -- 30
2019-08-03 14:00:00 30.5 10 Oeste 24 Oeste 0 -- -- 34
2019-08-03 13:00:00 28.8 9 Sudoeste 16 Sudoeste 0 -- -- 39
2019-08-03 12:00:00 26.9 5 Oeste 11 Sudoeste 0 -- -- 43
2019-08-03 11:00:00 24.9 4 Sudeste 11 Este 0 -- -- 48
2019-08-03 10:00:00 22 6 Nordeste 15 Nordeste 0 -- -- 57
2019-08-03 09:00:00 19.1 10 Este 16 Este 0 -- -- 65
2019-08-03 08:00:00 14.5 0 Calma 5 Nordeste 0 -- -- 79
2019-08-03 07:00:00 13 2 Nordeste 5 Nordeste 0 -- -- 78
2019-08-03 06:00:00 13.8 0 Calma 5 Noroeste 0 -- -- 74
2019-08-03 05:00:00 14.2 2 Noroeste 5 Oeste 0 -- -- 72
2019-08-03 04:00:00 15.3 0 Calma 8 Norte 0 -- -- 66
2019-08-03 03:00:00 20.2 6 Norte 10 Norte 0 -- -- 51
2019-08-03 02:00:00 19.8 3 Noroeste 7 Norte 0 -- -- 47
2019-08-03 01:00:00 18.6 4 Noroeste 6 Norte 0 -- -- 50
2019-08-03 00:00:00 20.9 5 Nordeste 10 Nordeste 0 -- -- 44
2019-08-02 23:00:00 24.6 6 Norte 9 Norte 0 -- -- 36
2019-08-02 22:00:00 26.8 4 Noroeste 12 Noroeste 0 -- -- 31
2019-08-02 21:00:00 30.7 6 Noroeste 12 Noroeste 0 -- -- 25
2019-08-02 20:00:00 32 6 Oeste 19 Oeste 0 -- -- 23
2019-08-02 19:00:00 32.4 4 Noroeste 22 Oeste 0 -- -- 23
2019-08-02 18:00:00 32.3 9 Oeste 18 Oeste 0 -- -- 24
2019-08-02 17:00:00 31.4 10 Nordeste 24 Noroeste 0 -- -- 26
2019-08-02 16:00:00 31.2 8 Oeste 21 Este 0 -- -- 29
2019-08-02 15:00:00 30 5 Norte 17 Sudeste 0 -- -- 34
2019-08-02 14:00:00 28.3 7 Nordeste 20 Nordeste 0 -- -- 40
2019-08-02 13:00:00 25.9 11 Este 21 Este 0 -- -- 48
2019-08-02 12:00:00 23.4 12 Nordeste 18 Nordeste 0 -- -- 55
2019-08-02 11:00:00 20.6 11 Este 19 Nordeste 0 -- -- 64
2019-08-02 10:00:00 17.7 15 Nordeste 25 Este 0 -- -- 75
2019-08-02 09:00:00 15.4 17 Nordeste 27 Este 0 -- -- 84
2019-08-02 08:00:00 13.9 6 Este 12 Este 0 -- -- 89
2019-08-02 07:00:00 13.7 5 Este 13 Este 0 -- -- 88
2019-08-02 06:00:00 14.4 7 Este 22 Nordeste 0 -- -- 87
2019-08-02 05:00:00 15.1 15 Nordeste 22 Nordeste 0 -- -- 86
2019-08-02 04:00:00 16 16 Nordeste 26 Nordeste 0 -- -- 82
2019-08-02 03:00:00 17.4 13 Nordeste 22 Nordeste 0 -- -- 75
2019-08-02 02:00:00 17.1 5 Norte 10 Noroeste 0 -- -- 62
2019-08-02 01:00:00 20.3 5 Noroeste 9 Noroeste 0 -- -- 51
2019-08-02 00:00:00 21.6 4 Noroeste 10 Noroeste 0 -- -- 46
2019-08-01 23:00:00 22.8 5 Norte 10 Norte 0 -- -- 39
2019-08-01 22:00:00 24.4 4 Norte 15 Norte 0 -- -- 35
2019-08-01 21:00:00 28.2 7 Noroeste 21 Noroeste 0 -- -- 27
2019-08-01 20:00:00 29.6 10 Noroeste 24 Noroeste 0 -- -- 24
2019-08-01 19:00:00 30.1 12 Oeste 27 Oeste 0 -- -- 20
2019-08-01 18:00:00 29.6 15 Oeste 31 Oeste 0 -- -- 22
2019-08-01 17:00:00 30.5 10 Noroeste 30 Oeste 0 -- -- 25
2019-08-01 16:00:00 29.6 13 Noroeste 30 Norte 0 -- -- 28
2019-08-01 15:00:00 28.4 9 Noroeste 19 Noroeste 0 -- -- 33
2019-08-01 14:00:00 27.5 10 Oeste 19 Sudoeste 0 -- -- 30
2019-08-01 13:00:00 26.4 7 Noroeste 16 Oeste 0 -- -- 40
2019-08-01 12:00:00 23.9 3 Nordeste 15 Este 0 -- -- 49
2019-08-01 11:00:00 21.7 5 Nordeste 12 Este 0 -- -- 56
2019-08-01 10:00:00 19 8 Este 15 Sudeste 0 -- -- 64
2019-08-01 09:00:00 17 8 Sudeste 12 Sudeste 0 -- -- 71
2019-08-01 08:00:00 15 7 Este 21 Nordeste 0 -- -- 77
2019-08-01 07:00:00 14.8 17 Nordeste 26 Nordeste 0 -- -- 78
2019-08-01 06:00:00 14.8 13 Nordeste 22 Nordeste 0 -- -- 78
2019-08-01 05:00:00 15.7 13 Nordeste 23 Nordeste 0 -- -- 74
2019-08-01 04:00:00 17.1 12 Nordeste 19 Nordeste 0 -- -- 66
2019-08-01 03:00:00 18.2 10 Nordeste 18 Nordeste 0 -- -- 60
2019-08-01 02:00:00 18.8 13 Nordeste 20 Nordeste 0 -- -- 55
2019-08-01 01:00:00 20.6 16 Nordeste 23 Nordeste 0 -- -- 46
2019-08-01 00:00:00 20.7 7 Nordeste 16 Norte 0 -- -- 42
2019-07-31 23:00:00 21.5 10 Nordeste 14 Nordeste 0 -- -- 39
2019-07-31 22:00:00 23.4 9 Nordeste 21 Nordeste 0 -- -- 35
2019-07-31 21:00:00 24.9 12 Norte 22 Nordeste 0 -- -- 33
2019-07-31 20:00:00 25.5 12 Nordeste 27 Nordeste 0 -- -- 33
2019-07-31 19:00:00 26.3 17 Nordeste 27 Norte 0 -- -- 33
2019-07-31 18:00:00 27 12 Norte 22 Norte 0 -- -- 32
2019-07-31 17:00:00 26.9 13 Nordeste 22 Nordeste 0 -- -- 33
2019-07-31 16:00:00 26.2 14 Nordeste 27 Este 0 -- -- 35
2019-07-31 15:00:00 25.7 18 Nordeste 34 Nordeste 0 -- -- 38
2019-07-31 14:00:00 23.2 24 Nordeste 40 Este 0 -- -- 42
2019-07-31 13:00:00 22.5 23 Nordeste 36 Este 0 -- -- 46
2019-07-31 12:00:00 19.9 22 Nordeste 38 Nordeste 0 -- -- 52
2019-07-31 11:00:00 17 27 Nordeste 39 Nordeste 0 -- -- 61
2019-07-31 10:00:00 14.7 19 Nordeste 31 Este 0 -- -- 70
2019-07-31 09:00:00 12.6 26 Nordeste 36 Nordeste 0 -- -- 79
2019-07-31 08:00:00 11.1 26 Nordeste 39 Nordeste 0 -- -- 85
2019-07-31 07:00:00 11.1 27 Nordeste 37 Nordeste 0 -- -- 85
2019-07-31 06:00:00 11.6 26 Nordeste 38 Nordeste 0 -- -- 82
2019-07-31 05:00:00 12.1 27 Nordeste 39 Nordeste 0 -- -- 79
2019-07-31 04:00:00 13 26 Nordeste 41 Nordeste 0 -- -- 73
2019-07-31 03:00:00 14.1 22 Nordeste 31 Nordeste 0 -- -- 67
2019-07-31 02:00:00 15.7 17 Nordeste 24 Nordeste 0 -- -- 41
2019-07-31 01:00:00 18.6 13 Nordeste 21 Este 0 -- -- 31
2019-07-31 00:00:00 18.6 14 Este 20 Este 0 -- -- 35
2019-07-30 23:00:00 17 10 Nordeste 13 Nordeste 0 -- -- 40
2019-07-30 22:00:00 18.9 8 Nordeste 16 Este 0 -- -- 36
2019-07-30 21:00:00 23.2 11 Nordeste 20 Nordeste 0 -- -- 27
2019-07-30 20:00:00 24.5 13 Nordeste 26 Nordeste 0 -- -- 25
2019-07-30 19:00:00 25.2 11 Nordeste 27 Nordeste 0 -- -- 25
2019-07-30 18:00:00 24.8 12 Nordeste 30 Nordeste 0 -- -- 24
2019-07-30 17:00:00 24.5 10 Nordeste 30 Este 0 -- -- 26
2019-07-30 16:00:00 23.9 15 Nordeste 30 Este 0 -- -- 29
2019-07-30 15:00:00 22.4 16 Nordeste 28 Nordeste 0 -- -- 35
2019-07-30 14:00:00 21.3 10 Norte 28 Nordeste 0 -- -- 38
2019-07-30 13:00:00 19.7 11 Nordeste 26 Este 0 -- -- 41
2019-07-30 12:00:00 17.8 10 Nordeste 25 Nordeste 0 -- -- 48
2019-07-30 11:00:00 16.4 18 Nordeste 27 Nordeste 0 -- -- 51
2019-07-30 10:00:00 14.5 15 Nordeste 22 Nordeste 0 -- -- 59
2019-07-30 09:00:00 12 4 Norte 8 Norte 0 -- -- 76
2019-07-30 08:00:00 6.5 0 Calma 4 Nordeste 0 -- -- 92
2019-07-30 07:00:00 5.7 2 Nordeste 4 Nordeste 0 -- -- 88
2019-07-30 06:00:00 8 2 Este 9 Sudeste 0 -- -- 84
2019-07-30 05:00:00 9.4 2 Noroeste 9 Norte 0 -- -- 76
2019-07-30 04:00:00 11.7 2 Noroeste 17 Norte 0 -- -- 72
2019-07-30 03:00:00 12.6 9 Noroeste 23 Oeste 0 -- -- 70
2019-07-30 02:00:00 13.2 6 Noroeste 19 Noroeste 0 -- -- 67
2019-07-30 01:00:00 14.6 7 Noroeste 24 Noroeste 0 -- -- 61
2019-07-30 00:00:00 15.7 9 Noroeste 22 Norte 0 -- -- 53
2019-07-29 23:00:00 17 10 Noroeste 26 Noroeste 0 -- -- 50
2019-07-29 22:00:00 18.9 11 Noroeste 29 Noroeste 0 -- -- 46
2019-07-29 21:00:00 21.3 12 Noroeste 31 Oeste 0 -- -- 40
2019-07-29 20:00:00 23.2 16 Noroeste 36 Oeste 0 -- -- 34
2019-07-29 19:00:00 24.1 15 Noroeste 37 Oeste 0 -- -- 32
2019-07-29 18:00:00 24.4 17 Noroeste 37 Oeste 0 -- -- 33
2019-07-29 17:00:00 24.1 17 Noroeste 37 Oeste 0 -- -- 35
2019-07-29 16:00:00 23.8 15 Noroeste 36 Noroeste 0 -- -- 37
2019-07-29 15:00:00 23.1 19 Noroeste 37 Noroeste 0 -- -- 38
2019-07-29 14:00:00 22.4 16 Oeste 31 Oeste 0 -- -- 45
2019-07-29 13:00:00 20.8 18 Oeste 33 Oeste 0 -- -- 52
2019-07-29 12:00:00 19.5 14 Oeste 28 Oeste 0 -- -- 60
2019-07-29 11:00:00 17.6 13 Oeste 24 Oeste 0 -- -- 69
2019-07-29 10:00:00 16.2 13 Oeste 23 Oeste 0 -- -- 69
2019-07-29 09:00:00 14.5 4 Sur 11 Sudoeste 0 -- -- 70
2019-07-29 08:00:00 12.1 3 Sudoeste 9 Sudoeste 0 -- -- 80
2019-07-29 07:00:00 12.3 5 Sudoeste 14 Oeste 0 -- -- 79
2019-07-29 06:00:00 13 6 Oeste 12 Sudoeste 0 -- -- 74
2019-07-29 05:00:00 13.9 6 Oeste 15 Oeste 0 -- -- 58
2019-07-29 04:00:00 15.4 9 Oeste 15 Oeste 0 -- -- 63
2019-07-29 03:00:00 16.4 6 Oeste 15 Oeste 0 -- -- 64
2019-07-29 02:00:00 18 9 Oeste 18 Oeste 0 -- -- 56
2019-07-29 01:00:00 18.8 0 Calma 10 Norte 0 -- -- 51
2019-07-29 00:00:00 19.3 5 Noroeste 13 Oeste 0 -- -- 46
2019-07-28 23:00:00 16.6 3 Noroeste 4 Noroeste 0 -- -- 51
2019-07-28 22:00:00 23 4 Norte 14 Noroeste 0 -- -- 32
2019-07-28 21:00:00 26.3 8 Noroeste 25 Oeste 0 -- -- 27
2019-07-28 20:00:00 27.4 10 Noroeste 22 Noroeste 0 -- -- 27
2019-07-28 19:00:00 27.8 12 Oeste 24 Oeste 0 -- -- 25
2019-07-28 18:00:00 27.8 14 Oeste 25 Noroeste 0 -- -- 27
2019-07-28 17:00:00 27.4 7 Norte 20 Sudoeste 0 -- -- 29
2019-07-28 16:00:00 26.8 8 Oeste 20 Oeste 0 -- -- 31
2019-07-28 15:00:00 25.5 7 Oeste 21 Sudoeste 0 -- -- 33
2019-07-28 14:00:00 24.3 6 Noroeste 22 Oeste 0 -- -- 36
2019-07-28 13:00:00 23 6 Este 17 Este 0 -- -- 42
2019-07-28 12:00:00 21.9 6 Sudeste 20 Este 0 -- -- 46
2019-07-28 11:00:00 20.1 8 Sudeste 18 Este 0 -- -- 50
2019-07-28 10:00:00 17.5 10 Sudeste 17 Sudeste 0 -- -- 58
2019-07-28 09:00:00 14.4 10 Este 14 Este 0 -- -- 76
2019-07-28 08:00:00 11.8 2 Este 10 Este 0 -- -- 82
2019-07-28 07:00:00 11.1 5 Este 11 Este 0 -- -- 83
2019-07-28 06:00:00 11.6 5 Este 10 Este 0 -- -- 81
2019-07-28 05:00:00 12.5 6 Este 13 Este 0 -- -- 78
2019-07-28 04:00:00 13.3 5 Este 14 Este 0 -- -- 76
2019-07-28 03:00:00 14.2 7 Este 13 Este 0 -- -- 76
2019-07-28 02:00:00 15.4 10 Este 16 Este 0 -- -- 75
2019-07-28 01:00:00 15.6 11 Nordeste 19 Este 0 -- -- 75
2019-07-28 00:00:00 17.8 14 Este 23 Este 0 -- -- 67
2019-07-27 23:00:00 19.1 9 Norte 16 Norte 0 -- -- 60
2019-07-26 12:00:00 -- -- -- -- -- -- -- -- --
2019-07-26 11:00:00 17.4 12 Noroeste 24 Oeste 0 -- -- 62
2019-07-26 10:00:00 15.7 15 Noroeste 26 Noroeste 0 -- -- 68
2019-07-26 09:00:00 14 12 Oeste 22 Oeste 0 -- -- 78
2019-07-26 08:00:00 12.6 5 Oeste 20 Oeste 0 -- -- 87
2019-07-26 07:00:00 13.1 9 Oeste 23 Oeste 0 -- -- 86
2019-07-26 06:00:00 14.8 12 Oeste 22 Oeste 0 -- -- 82
2019-07-26 05:00:00 15.8 14 Noroeste 23 Oeste 0 -- -- 80
2019-07-26 04:00:00 17 11 Oeste 19 Oeste 0 -- -- 73
2019-07-26 03:00:00 17.7 9 Oeste 21 Noroeste 0 -- -- 77
2019-07-26 02:00:00 18.1 10 Noroeste 24 Noroeste 0 -- -- 77
2019-07-26 01:00:00 19 9 Noroeste 26 Noroeste 0 -- -- 77
2019-07-26 00:00:00 20.1 15 Noroeste 31 Noroeste 0 -- -- 74
2019-07-25 23:00:00 21.1 10 Noroeste 27 Noroeste 0 -- -- 71
2019-07-25 22:00:00 22.2 17 Noroeste 31 Noroeste 0 -- -- 67
2019-07-25 21:00:00 24.2 14 Noroeste 33 Noroeste 0 -- -- 55
2019-07-25 20:00:00 26.2 16 Noroeste 37 Oeste 0 -- -- 46
2019-07-25 19:00:00 29.6 15 Oeste 35 Oeste 0 -- -- 37
2019-07-25 18:00:00 30.4 16 Oeste 35 Sudoeste 0 -- -- 32
2019-07-25 17:00:00 30.2 17 Oeste 37 Oeste 0 -- -- 32
2019-07-25 16:00:00 30.4 17 Oeste 40 Oeste 0 -- -- 35
2019-07-25 15:00:00 30.5 22 Oeste 42 Oeste 0 -- -- 29
2019-07-25 14:00:00 29.9 22 Sudoeste 38 Sudoeste 0 -- -- 25
2019-07-25 13:00:00 28.1 19 Sudoeste 29 Sudoeste 0 -- -- 32
2019-07-25 12:00:00 27 15 Sudoeste 27 Sudoeste 0 -- -- 35
2019-07-25 11:00:00 25.2 6 Oeste 14 Oeste 0 -- -- 47
2019-07-25 10:00:00 21.6 7 Sudoeste 12 Sudoeste 0 -- -- 54
2019-07-25 09:00:00 19 0 Calma 4 Oeste 0 -- -- 59
2019-07-25 08:00:00 14.3 0 Calma 4 Este 0 -- -- 81
2019-07-25 07:00:00 14.6 0 Calma 5 Este 0 -- -- 71
2019-07-25 06:00:00 14 0 Calma 3 Sudeste 0 -- -- 75
2019-07-25 05:00:00 16.5 3 Sur 6 Sudoeste 0 -- -- 62
2019-07-25 04:00:00 16.9 0 Calma 6 Sudoeste 0 -- -- 66
2019-07-25 03:00:00 18.4 4 Sudoeste 7 Sudoeste 0 -- -- 59
2019-07-25 02:00:00 20.3 3 Oeste 9 Oeste 0 -- -- 55
2019-07-25 01:00:00 23.2 5 Oeste 14 Noroeste 0 -- -- 45
2019-07-25 00:00:00 25.1 7 Noroeste 16 Noroeste 0 -- -- 41
2019-07-24 23:00:00 26.9 8 Noroeste 24 Oeste 0 -- -- 42
2019-07-24 22:00:00 29.1 12 Oeste 28 Oeste 0 -- -- 35
2019-07-24 21:00:00 31.4 15 Oeste 32 Sudoeste 0 -- -- 30
2019-07-24 20:00:00 32.8 18 Sudoeste 33 Sudoeste 0 -- -- 27
2019-07-24 19:00:00 33.3 19 Sudoeste 41 Sudoeste 0 -- -- 27
2019-07-24 18:00:00 33.8 20 Sudoeste 37 Sudoeste 0 -- -- 27
2019-07-24 17:00:00 33.8 19 Sudoeste 40 Oeste 0 -- -- 26
2019-07-24 16:00:00 33.6 15 Sudoeste 40 Sudoeste 0 -- -- 25
2019-07-24 15:00:00 33.1 25 Sudoeste 44 Oeste 0 -- -- 26
2019-07-24 14:00:00 32.5 17 Sudoeste 39 Sudoeste 0 -- -- 29
2019-07-24 13:00:00 31.2 22 Sudoeste 34 Sudoeste 0 -- -- 30
2019-07-24 12:00:00 29.2 10 Sudoeste 23 Sur 0 -- -- 41
2019-07-24 11:00:00 27 4 Sudoeste 10 Sudoeste 0 -- -- 50
2019-07-24 10:00:00 24.4 3 Este 7 Este 0 -- -- 63
2019-07-24 09:00:00 21.2 4 Sudoeste 8 Este 0 -- -- 77
2019-07-24 08:00:00 18.3 3 Nordeste 10 Nordeste 0 -- -- 86
2019-07-24 07:00:00 17.8 10 Nordeste 12 Nordeste 0 -- -- 88
2019-07-24 06:00:00 18 0 Calma 9 Este 0 -- -- 84
2019-07-24 05:00:00 18.2 3 Sudeste 6 Sudeste 0 -- -- 85
2019-07-24 04:00:00 19 0 Calma 4 Oeste 0 -- -- 82
2019-07-24 03:00:00 20.5 0 Calma 8 Este 0 -- -- 73
2019-07-24 02:00:00 20.7 4 Este 7 Este 0 -- -- 74
2019-07-24 01:00:00 21.1 5 Este 18 Nordeste 0 -- -- 68
2019-07-24 00:00:00 22.9 0 Calma 8 Norte 0 -- -- 64